createdAt,value
2018-02-21T00:01:13.283Z,101889.22
2018-02-21T00:03:41.688Z,101888.00
2018-02-21T00:06:10.023Z,101891.81
2018-02-21T00:08:38.302Z,101892.28
2018-02-21T00:11:06.721Z,101896.97
2018-02-21T00:13:34.302Z,101893.54
2018-02-21T00:16:01.890Z,101899.11
2018-02-21T00:18:30.293Z,101903.83
2018-02-21T00:20:58.605Z,101909.81
2018-02-21T00:23:26.894Z,101905.11
2018-02-21T00:25:54.483Z,101913.25
2018-02-21T00:28:22.846Z,101915.78
2018-02-21T00:30:50.476Z,101906.78
2018-02-21T00:33:18.896Z,101908.98
2018-02-21T00:35:47.255Z,101910.69
2018-02-21T00:38:15.697Z,101919.27
2018-02-21T00:40:43.296Z,101925.70
2018-02-21T00:43:10.922Z,101929.55
2018-02-21T00:45:38.509Z,101929.14
2018-02-21T00:48:06.933Z,101928.30
2018-02-21T00:50:34.518Z,101926.14
2018-02-21T00:53:02.142Z,101933.00
2018-02-21T00:55:29.731Z,101924.44
2018-02-21T00:57:58.026Z,101924.44
2018-02-21T01:00:26.611Z,101925.24
2018-02-21T01:02:54.260Z,101930.87
2018-02-21T01:05:21.853Z,101926.63
2018-02-21T01:07:49.436Z,101927.45
2018-02-21T01:10:17.025Z,101935.19
2018-02-21T01:12:45.410Z,101938.62
2018-02-21T01:15:14.052Z,101928.37
2018-02-21T01:17:41.673Z,101934.77
2018-02-21T01:20:09.266Z,101936.96
2018-02-21T01:22:36.897Z,101931.81
2018-02-21T01:25:04.484Z,101933.59
2018-02-21T01:27:32.207Z,101939.99
2018-02-21T01:29:59.789Z,101939.13
2018-02-21T01:32:27.411Z,101938.66
2018-02-21T01:34:55.772Z,101942.53
2018-02-21T01:37:23.354Z,101948.94
2018-02-21T01:39:50.942Z,101950.21
2018-02-21T01:42:19.333Z,101948.55
2018-02-21T01:44:46.928Z,101954.05
2018-02-21T01:47:14.519Z,101956.59
2018-02-21T01:49:42.205Z,101958.36
2018-02-21T01:52:09.857Z,101955.75
2018-02-21T01:54:37.442Z,101956.59
2018-02-21T01:57:05.028Z,101957.48
2018-02-21T01:59:32.651Z,101956.16
2018-02-21T02:02:01.190Z,101957.05
2018-02-21T02:04:28.777Z,101965.21
2018-02-21T02:06:56.372Z,101960.50
2018-02-21T02:09:24.918Z,101960.49
2018-02-21T02:11:53.546Z,101953.66
2018-02-21T02:14:21.125Z,101955.39
2018-02-21T02:16:49.523Z,101948.48
2018-02-21T02:19:17.103Z,101953.66
2018-02-21T02:21:44.686Z,101957.09
2018-02-21T02:24:13.679Z,101952.00
2018-02-21T02:26:42.047Z,101958.85
2018-02-21T02:29:09.714Z,101957.56
2018-02-21T02:31:37.303Z,101960.11
2018-02-21T02:34:04.891Z,101972.50
2018-02-21T02:36:32.486Z,101973.36
2018-02-21T02:39:11.947Z,101969.92
2018-02-21T02:41:39.536Z,101975.94
2018-02-21T02:44:07.122Z,101976.81
2018-02-21T02:46:34.746Z,101973.37
2018-02-21T02:49:02.336Z,101965.24
2018-02-21T02:51:29.971Z,101973.38
2018-02-21T02:53:57.559Z,101974.64
2018-02-21T02:56:25.178Z,101984.09
2018-02-21T02:58:52.800Z,101981.47
2018-02-21T03:01:20.444Z,101974.66
2018-02-21T03:03:48.027Z,101982.34
2018-02-21T03:06:15.619Z,101980.64
2018-02-21T03:08:43.248Z,101985.37
2018-02-21T03:11:10.838Z,101987.09
2018-02-21T03:13:38.466Z,101987.51
2018-02-21T03:16:06.051Z,101990.09
2018-02-21T03:18:33.677Z,101987.98
2018-02-21T03:21:01.263Z,101986.27
2018-02-21T03:23:28.881Z,101982.86
2018-02-21T03:25:56.471Z,101991.82
2018-02-21T03:28:24.096Z,101981.56
2018-02-21T03:30:51.719Z,101982.86
2018-02-21T03:33:19.312Z,101981.99
2018-02-21T03:35:46.930Z,101976.46
2018-02-21T03:38:14.552Z,101982.02
2018-02-21T03:40:42.195Z,101985.03
2018-02-21T03:43:09.814Z,101979.88
2018-02-21T03:45:37.423Z,101986.32
2018-02-21T03:48:05.046Z,101987.59
2018-02-21T03:50:32.736Z,101998.28
2018-02-21T03:53:00.358Z,101998.70
2018-02-21T03:55:28.029Z,101998.27
2018-02-21T03:57:55.651Z,101996.15
2018-02-21T04:00:23.281Z,102003.41
2018-02-21T04:02:50.866Z,102001.71
2018-02-21T04:05:18.454Z,102004.70
2018-02-21T04:07:46.576Z,102004.31
2018-02-21T04:10:14.293Z,102004.31
2018-02-21T04:12:41.874Z,101998.78
2018-02-21T04:15:09.461Z,102001.34
2018-02-21T04:17:37.050Z,101993.64
2018-02-21T04:20:04.639Z,101982.09
2018-02-21T04:22:32.227Z,101988.52
2018-02-21T04:24:59.972Z,101979.95
2018-02-21T04:27:27.559Z,101979.55
2018-02-21T04:29:55.141Z,101973.55
2018-02-21T04:32:22.735Z,101974.84
2018-02-21T04:34:50.318Z,101970.58
2018-02-21T04:37:17.905Z,101969.30
2018-02-21T04:39:45.533Z,101978.27
2018-02-21T04:42:13.119Z,101980.83
2018-02-21T04:44:40.758Z,101975.71
2018-02-21T04:47:08.343Z,101970.17
2018-02-21T04:49:35.932Z,101973.58
2018-02-21T04:52:03.513Z,101983.41
2018-02-21T04:54:36.839Z,101989.36
2018-02-21T04:57:04.426Z,101991.09
2018-02-21T04:59:47.683Z,101996.62
2018-02-21T05:02:15.270Z,101994.94
2018-02-21T05:04:42.860Z,101993.22
2018-02-21T05:07:10.557Z,101993.63
2018-02-21T05:09:38.195Z,101995.34
2018-02-21T05:12:05.792Z,101991.52
2018-02-21T05:14:33.379Z,101999.17
2018-02-21T05:17:00.975Z,102001.73
2018-02-21T05:19:28.563Z,102004.30
2018-02-21T05:21:56.151Z,102010.70
2018-02-21T05:24:23.899Z,102016.27
2018-02-21T05:26:51.478Z,102023.93
2018-02-21T05:29:19.105Z,102020.11
2018-02-21T05:31:46.690Z,102023.91
2018-02-21T05:34:14.310Z,102029.47
2018-02-21T05:36:41.898Z,102026.45
2018-02-21T05:39:09.522Z,102035.00
2018-02-21T05:41:37.178Z,102024.75
2018-02-21T05:44:04.793Z,102034.14
2018-02-21T05:46:32.445Z,102040.11
2018-02-21T05:49:00.031Z,102043.15
2018-02-21T05:51:27.624Z,102045.27
2018-02-21T05:53:55.213Z,102046.56
2018-02-21T05:56:22.827Z,102043.09
2018-02-21T05:58:50.418Z,102051.22
2018-02-21T06:01:18.071Z,102046.08
2018-02-21T06:03:45.690Z,102048.22
2018-02-21T06:06:13.318Z,102055.03
2018-02-21T06:08:40.922Z,102055.50
2018-02-21T06:11:08.533Z,102061.47
2018-02-21T06:13:36.114Z,102063.16
2018-02-21T06:16:03.742Z,102059.75
2018-02-21T06:18:31.327Z,102063.17
2018-02-21T06:20:58.942Z,102068.31
2018-02-21T06:23:26.528Z,102067.89
2018-02-21T06:25:54.109Z,102070.90
2018-02-21T06:28:21.743Z,102074.72
2018-02-21T06:30:49.332Z,102070.44
2018-02-21T06:33:17.006Z,102070.47
2018-02-21T06:35:44.666Z,102070.88
2018-02-21T06:38:12.291Z,102077.30
2018-02-21T06:40:39.880Z,102068.77
2018-02-21T06:43:07.501Z,102073.46
2018-02-21T06:45:35.898Z,102070.05
2018-02-21T06:48:03.522Z,102067.48
2018-02-21T06:50:31.141Z,102077.31
2018-02-21T06:52:58.768Z,102066.65
2018-02-21T06:55:26.391Z,102068.34
2018-02-21T06:57:53.972Z,102069.64
2018-02-21T07:00:21.560Z,102069.20
2018-02-21T07:03:33.605Z,102067.10
2018-02-21T07:06:01.229Z,102067.09
2018-02-21T07:08:28.820Z,102073.94
2018-02-21T07:10:56.406Z,102085.45
2018-02-21T07:13:23.990Z,102083.32
2018-02-21T07:15:51.577Z,102086.34
2018-02-21T07:18:19.165Z,102095.30
2018-02-21T07:20:46.747Z,102100.42
2018-02-21T07:23:14.337Z,102103.83
2018-02-21T07:25:41.920Z,102104.24
2018-02-21T07:28:09.506Z,102111.52
2018-02-21T07:30:37.126Z,102118.34
2018-02-21T07:33:04.711Z,102119.59
2018-02-21T07:35:32.302Z,102118.31
2018-02-21T07:37:59.891Z,102115.72
2018-02-21T07:40:27.470Z,102121.28
2018-02-21T07:45:29.062Z,102112.25
2018-02-21T07:47:56.641Z,102109.66
2018-02-21T07:50:24.227Z,102110.53
2018-02-21T07:52:51.853Z,102119.02
2018-02-21T07:55:19.442Z,102113.44
2018-02-21T07:57:47.043Z,102119.32
2018-02-21T08:00:14.678Z,102124.02
2018-02-21T08:02:42.331Z,102115.83
2018-02-21T08:05:09.934Z,102120.95
2018-02-21T08:07:37.566Z,102115.31
2018-02-21T08:10:05.190Z,102120.47
2018-02-21T08:12:32.782Z,102123.82
2018-02-21T08:15:00.414Z,102121.59
2018-02-21T08:17:28.040Z,102118.59
2018-02-21T08:19:55.628Z,102120.69
2018-02-21T08:22:23.222Z,102117.58
2018-02-21T08:24:50.854Z,102125.24
2018-02-21T08:27:18.439Z,102120.44
2018-02-21T08:29:46.595Z,102121.63
2018-02-21T08:32:14.191Z,102118.88
2018-02-21T08:34:41.858Z,102121.02
2018-02-21T08:37:09.479Z,102129.56
2018-02-21T08:39:37.183Z,102131.09
2018-02-21T08:42:04.772Z,102128.89
2018-02-21T08:44:32.359Z,102120.77
2018-02-21T08:46:59.949Z,102121.43
2018-02-21T08:49:27.544Z,102122.86
2018-02-21T08:51:55.450Z,102123.67
2018-02-21T08:54:23.042Z,102127.41
2018-02-21T08:56:50.629Z,102131.28
2018-02-21T08:59:18.247Z,102128.58
2018-02-21T09:01:45.834Z,102124.75
2018-02-21T09:04:13.427Z,102127.20
2018-02-21T09:06:41.066Z,102132.17
2018-02-21T09:09:08.647Z,102132.50
2018-02-21T09:11:36.259Z,102135.48
2018-02-21T09:14:04.794Z,102140.27
2018-02-21T09:16:32.420Z,102138.69
2018-02-21T09:19:00.014Z,102137.33
2018-02-21T09:21:27.594Z,102138.22
2018-02-21T09:23:55.209Z,102140.16
2018-02-21T09:26:22.793Z,102133.56
2018-02-21T09:28:50.502Z,102136.10
2018-02-21T09:31:18.122Z,102133.41
2018-02-21T09:33:45.742Z,102134.66
2018-02-21T09:36:13.909Z,102135.05
2018-02-21T09:38:41.490Z,102129.81
2018-02-21T09:41:09.120Z,102135.60
2018-02-21T09:43:36.695Z,102138.45
2018-02-21T09:46:04.275Z,102136.05
2018-02-21T09:48:31.851Z,102130.16
2018-02-21T09:50:59.427Z,102121.33
2018-02-21T09:53:27.946Z,102121.76
2018-02-21T09:55:55.522Z,102113.95
2018-02-21T09:58:23.134Z,102112.67
2018-02-21T10:00:50.710Z,102119.23
2018-02-21T10:03:18.295Z,102114.45
2018-02-21T10:05:45.875Z,102119.33
2018-02-21T10:08:13.455Z,102118.23
2018-02-21T10:10:41.082Z,102111.37
2018-02-21T10:13:08.667Z,102112.67
2018-02-21T10:15:36.246Z,102109.62
2018-02-21T10:18:03.828Z,102112.22
2018-02-21T10:20:31.418Z,102113.69
2018-02-21T10:22:59.003Z,102116.33
2018-02-21T10:25:26.603Z,102113.02
2018-02-21T10:27:54.179Z,102114.66
2018-02-21T10:30:21.754Z,102104.25
2018-02-21T10:32:49.334Z,102101.53
2018-02-21T10:35:16.910Z,102101.02
2018-02-21T10:37:44.481Z,102095.60
2018-02-21T10:42:45.916Z,102090.78
2018-02-21T10:45:13.494Z,102091.08
2018-02-21T10:47:41.069Z,102090.25
2018-02-21T10:50:08.681Z,102092.05
2018-02-21T10:52:36.299Z,102083.59
2018-02-21T10:55:03.925Z,102086.95
2018-02-21T10:57:31.503Z,102079.05
2018-02-21T10:59:59.083Z,102080.29
2018-02-21T11:02:26.663Z,102083.79
2018-02-21T11:04:54.292Z,102072.70
2018-02-21T11:07:21.992Z,102069.69
2018-02-21T11:09:50.569Z,102064.30
2018-02-21T11:12:18.186Z,102073.90
2018-02-21T11:14:45.760Z,102076.03
2018-02-21T11:17:13.375Z,102074.59
2018-02-21T11:19:40.946Z,102084.92
2018-02-21T11:22:08.524Z,102079.45
2018-02-21T11:24:36.099Z,102067.18
2018-02-21T11:27:03.799Z,102076.11
2018-02-21T11:29:31.370Z,102085.77
2018-02-21T11:31:59.227Z,102085.95
2018-02-21T11:34:26.841Z,102083.85
2018-02-21T11:36:54.414Z,102082.78
2018-02-21T11:39:22.025Z,102073.89
2018-02-21T11:41:50.166Z,102075.48
2018-02-21T11:44:17.770Z,102078.64
2018-02-21T11:46:45.340Z,102078.13
2018-02-21T11:49:12.913Z,102076.77
2018-02-21T11:51:40.487Z,102078.81
2018-02-21T11:54:08.215Z,102079.95
2018-02-21T11:56:35.803Z,102082.53
2018-02-21T11:59:03.379Z,102084.34
2018-02-21T12:01:30.991Z,102087.55
2018-02-21T12:03:58.571Z,102083.98
2018-02-21T12:06:26.149Z,102082.09
2018-02-21T12:08:53.758Z,102082.02
2018-02-21T12:11:21.456Z,102091.03
2018-02-21T12:13:49.023Z,102085.83
2018-02-21T12:16:16.632Z,102091.66
2018-02-21T12:18:44.206Z,102096.17
2018-02-21T12:21:11.875Z,102093.09
2018-02-21T12:23:39.460Z,102086.68
2018-02-21T12:26:07.063Z,102088.00
2018-02-21T12:28:34.791Z,102091.20
2018-02-21T12:31:02.409Z,102091.81
2018-02-21T12:33:29.988Z,102089.45
2018-02-21T12:35:57.554Z,102083.30
2018-02-21T12:38:25.203Z,102084.53
2018-02-21T12:40:58.481Z,102087.94
2018-02-21T12:43:26.067Z,102087.56
2018-02-21T12:45:53.695Z,102078.13
2018-02-21T12:48:21.270Z,102083.74
2018-02-21T12:50:48.895Z,102080.38
2018-02-21T12:53:16.471Z,102074.72
2018-02-21T12:55:44.095Z,102071.36
2018-02-21T12:58:11.671Z,102079.30
2018-02-21T13:00:39.308Z,102082.09
2018-02-21T13:03:06.923Z,102082.02
2018-02-21T13:05:34.494Z,102076.03
2018-02-21T13:08:02.102Z,102075.19
2018-02-21T13:10:29.668Z,102074.37
2018-02-21T13:12:57.278Z,102067.63
2018-02-21T13:15:24.848Z,102068.64
2018-02-21T13:17:52.454Z,102069.49
2018-02-21T13:20:20.025Z,102061.99
2018-02-21T13:22:47.633Z,102058.38
2018-02-21T13:25:15.206Z,102054.77
2018-02-21T13:27:42.778Z,102052.77
2018-02-21T13:30:10.348Z,102052.17
2018-02-21T13:32:37.931Z,102053.11
2018-02-21T13:35:05.514Z,102057.08
2018-02-21T13:37:33.078Z,102052.90
2018-02-21T13:40:00.647Z,102049.52
2018-02-21T13:42:28.224Z,102047.73
2018-02-21T13:44:55.843Z,102046.86
2018-02-21T13:47:23.418Z,102045.09
2018-02-21T13:49:50.994Z,102045.79
2018-02-21T13:52:18.567Z,102048.22
2018-02-21T13:54:46.141Z,102048.08
2018-02-21T13:57:13.810Z,102051.82
2018-02-21T13:59:41.402Z,102051.17
2018-02-21T14:02:08.975Z,102045.03
2018-02-21T14:04:36.581Z,102040.30
2018-02-21T14:07:04.154Z,102041.95
2018-02-21T14:09:31.727Z,102036.55
2018-02-21T14:11:59.320Z,102042.38
2018-02-21T14:14:26.975Z,102036.44
2018-02-21T14:16:54.554Z,102034.07
2018-02-21T14:19:22.126Z,102037.89
2018-02-21T14:21:49.703Z,102043.73
2018-02-21T14:24:17.322Z,102044.88
2018-02-21T14:26:44.895Z,102043.45
2018-02-21T14:29:12.465Z,102034.45
2018-02-21T14:31:40.070Z,102039.84
2018-02-21T14:34:07.646Z,102033.94
2018-02-21T14:36:35.295Z,102034.64
2018-02-21T14:39:02.915Z,102029.97
2018-02-21T14:41:31.313Z,102024.20
2018-02-21T14:43:58.924Z,102028.31
2018-02-21T14:46:26.535Z,102027.31
2018-02-21T14:48:54.120Z,102022.84
2018-02-21T14:51:21.698Z,102025.89
2018-02-21T14:53:49.279Z,102019.97
2018-02-21T14:56:16.899Z,102029.94
2018-02-21T14:58:44.478Z,102026.52
2018-02-21T15:01:12.063Z,102022.69
2018-02-21T15:03:39.643Z,102022.27
2018-02-21T15:06:07.838Z,102025.42
2018-02-21T15:08:35.544Z,102028.44
2018-02-21T15:11:03.120Z,102027.13
2018-02-21T15:13:30.695Z,102029.18
2018-02-21T15:15:58.303Z,102031.03
2018-02-21T15:18:25.990Z,102035.70
2018-02-21T15:20:53.613Z,102039.94
2018-02-21T15:23:21.268Z,102037.03
2018-02-21T15:25:48.847Z,102042.52
2018-02-21T15:28:16.427Z,102040.70
2018-02-21T15:30:43.998Z,102038.58
2018-02-21T15:33:11.676Z,102040.09
2018-02-21T15:35:40.060Z,102035.50
2018-02-21T15:38:07.639Z,102044.94
2018-02-21T15:40:35.271Z,102042.31
2018-02-21T15:43:02.851Z,102045.27
2018-02-21T15:45:30.479Z,102041.94
2018-02-21T15:47:58.067Z,102042.12
2018-02-21T15:50:25.674Z,102041.44
2018-02-21T15:52:53.255Z,102041.00
2018-02-21T15:55:20.827Z,102043.81
2018-02-21T15:57:48.405Z,102042.73
2018-02-21T16:00:16.028Z,102043.13
2018-02-21T16:02:43.610Z,102045.44
2018-02-21T16:05:11.180Z,102046.73
2018-02-21T16:07:38.920Z,102049.86
2018-02-21T16:10:07.235Z,102054.00
2018-02-21T16:12:34.809Z,102056.35
2018-02-21T16:15:02.386Z,102058.62
2018-02-21T16:17:29.994Z,102062.74
2018-02-21T16:19:57.567Z,102061.83
2018-02-21T16:22:25.182Z,102064.19
2018-02-21T16:24:52.827Z,102064.47
2018-02-21T16:27:20.444Z,102073.45
2018-02-21T16:29:48.014Z,102072.59
2018-02-21T16:32:15.641Z,102069.75
2018-02-21T16:34:43.312Z,102075.40
2018-02-21T16:37:10.903Z,102077.25
2018-02-21T16:39:38.483Z,102075.95
2018-02-21T16:42:06.081Z,102084.61
2018-02-21T16:44:33.704Z,102090.41
2018-02-21T16:47:01.278Z,102091.70
2018-02-21T16:49:28.863Z,102089.55
2018-02-21T16:51:56.501Z,102090.50
2018-02-21T16:54:24.078Z,102090.97
2018-02-21T16:56:51.668Z,102090.70
2018-02-21T16:59:19.246Z,102093.16
2018-02-21T17:01:46.824Z,102092.84
2018-02-21T17:04:14.403Z,102093.09
2018-02-21T17:06:41.978Z,102094.77
2018-02-21T17:09:09.557Z,102101.80
2018-02-21T17:11:37.139Z,102104.38
2018-02-21T17:14:04.720Z,102102.00
2018-02-21T17:16:32.399Z,102100.32
2018-02-21T17:19:00.043Z,102106.89
2018-02-21T17:21:28.218Z,102106.22
2018-02-21T17:23:55.899Z,102111.59
2018-02-21T17:26:23.475Z,102112.27
2018-02-21T17:28:51.575Z,102113.81
2018-02-21T17:31:19.154Z,102112.06
2018-02-21T17:33:46.737Z,102117.02
2018-02-21T17:36:14.319Z,102114.22
2018-02-21T17:38:41.923Z,102113.05
2018-02-21T17:41:15.151Z,102123.09
2018-02-21T17:43:42.949Z,102118.52
2018-02-21T17:46:10.530Z,102118.14
2018-02-21T17:48:38.114Z,102118.71
2018-02-21T17:51:06.562Z,102123.46
2018-02-21T17:53:34.182Z,102131.78
2018-02-21T17:56:01.825Z,102124.27
2018-02-21T17:58:29.402Z,102126.02
2018-02-21T18:00:56.988Z,102124.48
2018-02-21T18:03:24.587Z,102133.53
2018-02-21T18:05:52.172Z,102133.06
2018-02-21T18:08:19.751Z,102136.15
2018-02-21T18:10:47.332Z,102136.48
2018-02-21T18:13:14.958Z,102134.82
2018-02-21T18:15:42.550Z,102131.00
2018-02-21T18:18:10.170Z,102125.02
2018-02-21T18:20:37.789Z,102127.16
2018-02-21T18:23:06.269Z,102130.64
2018-02-21T18:25:33.970Z,102132.72
2018-02-21T18:28:01.559Z,102140.91
2018-02-21T18:30:29.151Z,102133.64
2018-02-21T18:32:56.744Z,102137.83
2018-02-21T18:35:24.438Z,102139.28
2018-02-21T18:37:52.018Z,102144.88
2018-02-21T18:40:19.843Z,102140.61
2018-02-21T18:42:47.435Z,102137.87
2018-02-21T18:45:15.056Z,102134.09
2018-02-21T18:47:42.711Z,102140.55
2018-02-21T18:50:10.335Z,102138.86
2018-02-21T18:52:37.960Z,102143.99
2018-02-21T18:55:05.601Z,102147.93
2018-02-21T18:57:33.201Z,102150.98
2018-02-21T19:00:01.438Z,102149.19
2018-02-21T19:02:29.097Z,102150.67
2018-02-21T19:04:56.691Z,102155.05
2018-02-21T19:07:24.278Z,102150.81
2018-02-21T19:09:51.862Z,102159.03
2018-02-21T19:12:19.561Z,102159.50
2018-02-21T19:14:47.206Z,102161.63
2018-02-21T19:17:14.906Z,102159.50
2018-02-21T19:19:42.526Z,102165.94
2018-02-21T19:22:10.150Z,102168.48
2018-02-21T19:24:37.752Z,102167.66
2018-02-21T19:27:05.390Z,102167.64
2018-02-21T19:29:32.983Z,102166.81
2018-02-21T19:32:00.561Z,102166.36
2018-02-21T19:34:28.207Z,102164.65
2018-02-21T19:36:55.903Z,102164.59
2018-02-21T19:39:23.572Z,102163.36
2018-02-21T19:41:51.169Z,102171.03
2018-02-21T19:44:18.796Z,102178.70
2018-02-21T19:46:46.427Z,102173.45
2018-02-21T19:49:14.019Z,102172.13
2018-02-21T19:51:41.646Z,102175.56
2018-02-21T19:54:09.231Z,102174.19
2018-02-21T19:56:36.828Z,102174.69
2018-02-21T19:59:04.450Z,102172.13
2018-02-21T20:01:32.092Z,102172.63
2018-02-21T20:03:59.697Z,102173.05
2018-02-21T20:06:27.296Z,102174.30
2018-02-21T20:08:54.891Z,102182.06
2018-02-21T20:11:22.761Z,102173.38
2018-02-21T20:13:51.209Z,102173.73
2018-02-21T20:16:18.813Z,102173.70
2018-02-21T20:18:46.406Z,102171.55
2018-02-21T20:21:13.999Z,102175.55
2018-02-21T20:23:41.602Z,102176.46
2018-02-21T20:26:09.194Z,102178.54
2018-02-21T20:28:36.826Z,102178.95
2018-02-21T20:31:04.411Z,102180.27
2018-02-21T20:33:32.003Z,102186.18
2018-02-21T20:35:59.607Z,102182.79
2018-02-21T20:38:27.283Z,102185.02
2018-02-21T20:40:54.822Z,102192.30
2018-02-21T20:43:22.419Z,102188.75
2018-02-21T20:45:50.006Z,102185.86
2018-02-21T20:48:17.604Z,102183.19
2018-02-21T20:50:45.196Z,102181.07
2018-02-21T20:53:12.803Z,102186.26
2018-02-21T20:55:40.400Z,102189.72
2018-02-21T20:58:08.059Z,102188.03
2018-02-21T21:00:37.196Z,102192.23
2018-02-21T21:03:06.313Z,102195.33
2018-02-21T21:05:38.484Z,102194.45
2018-02-21T21:08:10.861Z,102191.03
2018-02-21T21:10:43.475Z,102187.99
2018-02-21T21:13:11.418Z,102190.19
2018-02-21T21:15:39.002Z,102192.80
2018-02-21T21:18:06.623Z,102189.34
2018-02-21T21:20:34.234Z,102183.29
2018-02-21T21:23:04.061Z,102187.61
2018-02-21T21:25:31.751Z,102182.89
2018-02-21T21:27:59.339Z,102177.25
2018-02-21T21:30:26.931Z,102180.26
2018-02-21T21:32:54.634Z,102186.22
2018-02-21T21:35:22.221Z,102193.41
2018-02-21T21:37:49.807Z,102183.92
2018-02-21T21:40:17.397Z,102185.22
2018-02-21T21:42:44.981Z,102192.08
2018-02-21T21:45:12.721Z,102192.91
2018-02-21T21:47:40.314Z,102189.50
2018-02-21T21:50:07.968Z,102192.89
2018-02-21T21:52:35.873Z,102195.03
2018-02-21T21:55:03.761Z,102187.77
2018-02-21T21:57:31.415Z,102194.62
2018-02-21T21:59:59.126Z,102182.20
2018-02-21T22:02:27.014Z,102182.17
2018-02-21T22:04:55.011Z,102181.75
2018-02-21T22:07:22.641Z,102184.32
2018-02-21T22:09:50.230Z,102189.91
2018-02-21T22:12:17.868Z,102181.76
2018-02-21T22:14:45.760Z,102183.48
2018-02-21T22:17:13.399Z,102185.62
2018-02-21T22:19:41.006Z,102191.19
2018-02-21T22:22:08.646Z,102186.48
2018-02-21T22:24:36.491Z,102186.05
2018-02-21T22:27:04.376Z,102189.51
2018-02-21T22:29:31.976Z,102189.08
2018-02-21T22:31:59.561Z,102181.88
2018-02-21T22:34:27.352Z,102186.56
2018-02-21T22:36:55.240Z,102183.58
2018-02-21T22:39:22.863Z,102182.70
2018-02-21T22:41:50.486Z,102186.63
2018-02-21T22:44:18.414Z,102185.77
2018-02-21T22:46:46.808Z,102181.88
2018-02-21T22:49:14.590Z,102181.95
2018-02-21T22:51:42.195Z,102186.28
2018-02-21T22:54:09.793Z,102185.44
2018-02-21T22:56:37.562Z,102191.08
2018-02-21T22:59:05.447Z,102180.22
2018-02-21T23:01:33.172Z,102175.20
2018-02-21T23:04:00.761Z,102183.34
2018-02-21T23:06:28.477Z,102177.83
2018-02-21T23:08:56.369Z,102176.49
2018-02-21T23:11:24.048Z,102182.11
2018-02-21T23:13:51.652Z,102172.19
2018-02-21T23:16:19.459Z,102180.05
2018-02-21T23:18:47.652Z,102182.56
2018-02-21T23:21:15.417Z,102184.25
2018-02-21T23:23:43.035Z,102183.08
2018-02-21T23:26:10.621Z,102181.00
2018-02-21T23:28:38.304Z,102183.53
2018-02-21T23:31:05.921Z,102176.26
2018-02-21T23:33:33.507Z,102179.71
2018-02-21T23:36:01.087Z,102181.48
2018-02-21T23:38:28.715Z,102172.41
2018-02-21T23:40:56.307Z,102175.90
2018-02-21T23:43:23.890Z,102174.15
2018-02-21T23:45:51.479Z,102175.84
2018-02-21T23:48:19.070Z,102183.16
2018-02-21T23:50:46.694Z,102188.36
2018-02-21T23:53:14.282Z,102183.25
2018-02-21T23:55:41.872Z,102178.09
2018-02-21T23:58:09.458Z,102182.32
